This is the latest recevied weather packets stored in our database for station/object BMCB-15. If no packets are shown the sender has not sent any weather packets the latest 10 day(s).
| Time | Temp. | Humidity | Pressure | Rain* | Wind** | Luminosity | Snow |
|---|---|---|---|---|---|---|---|
| 1777872037 | 10.56° C | 99% | 1015.1 hPa | 0 mm | - | 74 W/m² | - |
| 1777867239 | 10.56° C | 97% | 1014.8 hPa | 0 mm | - | 0 W/m² | - |
| 1777866637 | 10.56° C | 97% | 1014.8 hPa | 0 mm | - | 0 W/m² | - |
| 1777862437 | 11.11° C | 95% | 1014.6 hPa | 0 mm | - | 0 W/m² | - |
| 1777855837 | 12.22° C | 93% | 1014.2 hPa | 0 mm | - | 0 W/m² | - |
| 1777851044 | 12.22° C | 94% | 1014.4 hPa | 0 mm | - | 0 W/m² | - |
| 1777850444 | 12.22° C | 94% | 1014.6 hPa | 0 mm | - | 0 W/m² | - |
| 1777845644 | 13.33° C | 93% | 1014.6 hPa | 0 mm | - | 0 W/m² | - |
| 1777843850 | 13.33° C | 94% | 1014.7 hPa | 0 mm | - | 0 W/m² | - |
| 1777843250 | 13.33° C | 94% | 1014.7 hPa | 0 mm | - | 0 W/m² | - |
| 1777842647 | 13.33° C | 94% | 1014.8 hPa | 0 mm | - | 0 W/m² | - |
| 1777841446 | 13.33° C | 94% | 1014.6 hPa | 0 mm | - | 0 W/m² | - |
| 1777838448 | 13.33° C | 93% | 1014.7 hPa | 0 mm | - | 0 W/m² | - |
| 1777827638 | 15° C | 88% | 1013.9 hPa | 0 mm | - | 172 W/m² | - |
| 1777824038 | 14.44° C | 92% | 1014 hPa | 0 mm | - | 178 W/m² | - |
| 1777819840 | 15° C | 90% | 1014.2 hPa | 0 mm | - | 190 W/m² | - |
| 1777819238 | 15° C | 91% | 1014.2 hPa | 0 mm | - | 140 W/m² | - |
| 1777818637 | 15° C | 90% | 1014.2 hPa | 0 mm | - | 140 W/m² | - |
| 1777818038 | 15° C | 91% | 1014.2 hPa | 0 mm | - | 216 W/m² | - |
| 1777812639 | 13.33° C | 97% | 1014.8 hPa | 1.78 mm | - | 208 W/m² | - |
| 1777812038 | 13.33° C | 97% | 1014.8 hPa | 2.29 mm | - | 158 W/m² | - |
| 1777809637 | 12.78° C | 96% | 1014.9 hPa | 2.03 mm | - | 138 W/m² | - |
| 1777807839 | 13.33° C | 94% | 1014.8 hPa | 2.29 mm | - | 130 W/m² | - |
| 1777805439 | 13.33° C | 94% | 1014.8 hPa | 2.29 mm | - | 194 W/m² | - |
| 1777804242 | 13.33° C | 91% | 1014.9 hPa | 1.78 mm | - | 94 W/m² | - |
* Rain latest hour (hover to see other rain measurements)
** Current wind speed in m/s (hover to see current wind gust speed)